Fairview Valley, Nevada Weather observations

Data are for observation ending at time listed.
 Day   Time    Ave.   Ave.  Ave.  Vector   Max.   Stn.    Total    Solar   Ave.   Ave.    #1       #2
  of    of     Air    Rel.  Wind   Wind    Wind   Baro.  Precip.   Rad.    Soil   Vis.   Cloud   Cloud
Year   Day     Temp.  Hum.  Speed  Dir.    Gust   Pres.                    Temp.          Ceil    Ceil
2016   (PST)    F      %     mph   deg.    mph     mb.     in.     W/m2     F     (km)   k ft.   k ft.
------------------------------------------------------------------------------------------------------
 241   11:50   88.1     9    7.1   246     12.1    875     0.00     958    76.5   -8190.0    0.0  999.0
 241   12:00   88.2     9    6.0   259     13.2    875     0.00     960    76.7   -8190.0    0.0  999.0
 241   12:10   88.7     9    6.2   252     14.9    875     0.00     960    76.8   -8190.0    0.0  999.0
 241   12:20   89.1     8    6.8   184     12.5    875     0.00     957    77.0   -8190.0    0.0  999.0
 241   12:30   89.7     8    4.8   222     11.6    875     0.00     936    77.1   -8190.0    0.0  999.0
 241   12:40   89.3     8    8.3   246     12.7    875     0.00     945    77.3   -8190.0    0.0  999.0
 241   12:50   89.6     8    4.6   244     12.9    875     0.00     938    77.5   -8190.0    0.0  999.0
 241   13:00   91.0     8    8.3   240     13.7    875     0.00     927    77.7   -8190.0    0.0  999.0
 241   13:10   90.4     8    7.2   272     12.9    874     0.00     917    77.9   -8190.0    0.0  999.0
 241   13:20   91.0     8    3.6   240     14.0    874     0.00     901    78.2   -8190.0    0.0  999.0
 241   13:30   91.7     8    4.1   285     12.5    874     0.00     886    78.5   -8190.0    0.0  999.0
 241   13:40   91.0     8    5.6   237     10.8    874     0.00     871    78.7   -8190.0    0.0  999.0
 241   13:50   92.0     8    6.0   215     12.2    874     0.00     852    79.0   -8190.0    0.0  999.0
 241   14:00   91.3     8    6.9   269     14.2    874     0.00     831    79.3   -8190.0    0.0  999.0
 241   14:10   91.6     8    5.4   271     14.0    874     0.00     808    79.6   -8190.0    0.0  999.0
 241   14:20   91.3     8    8.1   307     13.7    873     0.00     788    79.9   -8190.0    0.0  999.0
 241   14:30   91.4     8    7.5   312     12.5    873     0.00     763    80.2   -8190.0    0.0  999.0
 241   14:40   92.1     8    5.7   295     15.8    873     0.00     732    80.6   -8190.0    0.0  999.0
 241   14:50   92.1     8    4.8   236     10.9    873     0.00     709    80.9   -8190.0    0.0  999.0
 241   15:00   92.1     8    6.8   264     11.9    873     0.00     685    81.2   -8190.0    0.0  999.0
 241   15:10   91.8     8    4.1   250      9.1    873     0.00     659    81.5   -8190.0    0.0  999.0
 241   15:20   92.7     8    2.6   232      5.6    873     0.00     628    81.9   -8190.0    0.0  999.0
 241   15:30   92.7     8    3.3   239     11.8    873     0.00     595    82.1   -8190.0    0.0  999.0
 241   15:40   92.2     8    4.7   310      9.4    873     0.00     559    82.5   -8190.0    0.0  999.0
 241   15:50   92.3     8    4.2   347      9.6    873     0.00     529    82.8   -8190.0    0.0  999.0
 241   16:00   92.1     8    6.2   316     11.2    873     0.00     494    83.1   -8190.0    0.0  999.0
 241   16:10   92.1     8    5.7   355     10.7    873     0.00     460    83.4   -8190.0    0.0  999.0
 241   16:20   92.1     7    5.2   285      9.1    873     0.00     425    83.7   -8190.0    0.0  999.0
 241   16:30   92.0     7    6.0   264      9.1    873     0.00     387    83.9   -8190.0    0.0  999.0
 241   16:40   92.2     7    2.0   341      5.3    873     0.00     348    84.2   -8190.0    0.0  999.0
 241   16:50   92.8     7    5.1   259      9.7    873     0.00     307    84.5   -8190.0    0.0  999.0
 241   17:00   91.9     7    8.9   303     13.2    872     0.00     269    84.7   -8190.0    0.0  999.0
 241   17:10   91.6     8    7.6   292     11.7    873     0.00     234    85.0   -8190.0    0.0  999.0
 241   17:20   91.4     8    2.8   269      5.5    872     0.00     200    85.3   -8190.0    0.0  999.0
 241   17:30   90.9     8    8.0   298     12.0    872     0.00     166    85.5   -8190.0    0.0  999.0
 241   17:40   90.3     8    7.1   291      9.1    872     0.00     134    85.7   -8190.0    0.0  999.0
 241   17:50   89.9     8    6.8   283     10.5    872     0.00     101    85.8   999.0  999.0  999.0
 241   18:00  999.0   999  999.0   999    999.0    999    999.00     999   999.0   999.0  999.0  999.0
 241   18:10  999.0   999  999.0   999    999.0    999    999.00     999   999.0   999.0  999.0  999.0
 241   18:20  999.0   999  999.0   999    999.0    999    999.00     999   999.0   999.0  999.0  999.0
 241   18:30  999.0   999  999.0   999    999.0    999    999.00     999   999.0   999.0  999.0  999.0
 241   18:40  999.0   999  999.0   999    999.0    999    999.00     999   999.0   999.0  999.0  999.0
 241   18:50   81.9    10    9.1   300     10.0    873     0.00       0    86.6   -8190.0    0.0  999.0
 241   19:00   80.5    11    9.5   302     10.4    873     0.00       0    86.7   -8190.0    0.0  999.0
 241   19:10   79.8    11   10.4   301     11.6    873     0.00       0    86.7   -8190.0    0.0  999.0
 241   19:20   78.9    11    8.1   312     10.3    873     0.00       0    86.7   -8190.0    0.0  999.0
 241   19:30   77.5    12    4.6    38      8.0    873     0.00       0    86.8   -8190.0    0.0  999.0
 241   19:40   78.2    11    5.4    43      7.9    874     0.00       0    86.7   -8190.0    0.0  999.0
 241   19:50   76.4    12    7.4    28      8.8    874     0.00       0    86.7   999.0  999.0  999.0
 241   20:00  999.0   999  999.0   999    999.0    999    999.00     999   999.0   999.0  999.0  999.0
 241   20:10  999.0   999  999.0   999    999.0    999    999.00     999   999.0   999.0  999.0  999.0
 241   20:20  999.0   999  999.0   999    999.0    999    999.00     999   999.0   999.0  999.0  999.0
 241   20:30  999.0   999  999.0   999    999.0    999    999.00     999   999.0   999.0  999.0  999.0
 241   20:40  999.0   999  999.0   999    999.0    999    999.00     999   999.0   999.0  999.0  999.0
 241   20:50   75.9   999    1.7   245      2.9    999    999.00       0   999.0   999.0  999.0  999.0
 241   21:00  999.0   999  999.0   999    999.0    999    999.00     999   999.0   999.0  999.0  999.0
 241   21:10  999.0   999  999.0   999    999.0    999    999.00     999   999.0   999.0  999.0  999.0
 241   21:20  999.0   999  999.0   999    999.0    999    999.00     999   999.0   999.0  999.0  999.0
 241   21:30  999.0   999  999.0   999    999.0    999    999.00     999   999.0   999.0  999.0  999.0
 241   21:40  999.0   999  999.0   999    999.0    999    999.00     999   999.0   999.0  999.0  999.0
 241   21:50  999.0   999  999.0   999    999.0    999    999.00       0   999.0   999.0  999.0  999.0
 241   22:00  999.0   999  999.0   999    999.0    999    999.00     999   999.0   999.0  999.0  999.0
 241   22:10  999.0   999  999.0   999    999.0    999    999.00     999   999.0   999.0  999.0  999.0
 241   22:20  999.0   999  999.0   999    999.0    999    999.00     999   999.0   999.0  999.0  999.0
 241   22:30  999.0   999  999.0   999    999.0    999    999.00     999   999.0   999.0  999.0  999.0
 241   22:40  999.0   999  999.0   999    999.0    999    999.00     999   999.0   999.0  999.0  999.0
 241   22:50  999.0   999  999.0   999    999.0    999    999.00     999   999.0   999.0  999.0  999.0
 241   23:00  999.0   999  999.0   999    999.0    999    999.00     999   999.0   999.0  999.0  999.0
 241   23:10  999.0   999  999.0   999    999.0    999    999.00     999   999.0   999.0  999.0  999.0
 241   23:20  999.0   999  999.0   999    999.0    999    999.00     999   999.0   999.0  999.0  999.0
 241   23:30  999.0   999  999.0   999    999.0    999    999.00     999   999.0   999.0  999.0  999.0
 241   23:40  999.0   999  999.0   999    999.0    999    999.00     999   999.0   999.0  999.0  999.0
 241   23:50  999.0   999  999.0   999    999.0    999    999.00     999   999.0   999.0  999.0  999.0
 242    0:00  999.0   999  999.0   999    999.0    999    999.00     999   999.0   999.0  999.0  999.0
 242    0:10  999.0   999  999.0   999    999.0    999    999.00     999   999.0   999.0  999.0  999.0
 242    0:20  999.0   999  999.0   999    999.0    999    999.00     999   999.0   999.0  999.0  999.0
 242    0:30  999.0   999  999.0   999    999.0    999    999.00     999   999.0   999.0  999.0  999.0
 242    0:40  999.0   999  999.0   999    999.0    999    999.00     999   999.0   999.0  999.0  999.0
 242    0:50  999.0   999  999.0   999    999.0    999    999.00     999   999.0   999.0  999.0  999.0
 242    1:00  999.0   999  999.0   999    999.0    999    999.00     999   999.0   999.0  999.0  999.0
 242    1:10  999.0   999  999.0   999    999.0    999    999.00     999   999.0   999.0  999.0  999.0
 242    1:20  999.0   999  999.0   999    999.0    999    999.00     999   999.0   999.0  999.0  999.0
 242    1:30  999.0   999  999.0   999    999.0    999    999.00     999   999.0   999.0  999.0  999.0
 242    1:40  999.0   999  999.0   999    999.0    999    999.00     999   999.0   999.0  999.0  999.0
 242    1:50  999.0   999  999.0   999    999.0    999    999.00     999   999.0   999.0  999.0  999.0
 242    2:00  999.0   999  999.0   999    999.0    999    999.00     999   999.0   999.0  999.0  999.0
 242    2:10  999.0   999  999.0   999    999.0    999    999.00     999   999.0   999.0  999.0  999.0
 242    2:20  999.0   999  999.0   999    999.0    999    999.00     999   999.0   999.0  999.0  999.0
 242    2:30  999.0   999  999.0   999    999.0    999    999.00     999   999.0   999.0  999.0  999.0
 242    2:40  999.0   999  999.0   999    999.0    999    999.00     999   999.0   999.0  999.0  999.0
 242    2:50  999.0   999  999.0   999    999.0    999    999.00     999   999.0   999.0  999.0  999.0
 242    3:00  999.0   999  999.0   999    999.0    999    999.00     999   999.0   999.0  999.0  999.0
 242    3:10  999.0   999  999.0   999    999.0    999    999.00     999   999.0   999.0  999.0  999.0
 242    3:20  999.0   999  999.0   999    999.0    999    999.00     999   999.0   999.0  999.0  999.0
 242    3:30  999.0   999  999.0   999    999.0    999    999.00     999   999.0   999.0  999.0  999.0
 242    3:40  999.0   999  999.0   999    999.0    999    999.00     999   999.0   999.0  999.0  999.0
 242    3:50  999.0   999  999.0   999    999.0    999    999.00     999   999.0   999.0  999.0  999.0
 242    4:00  999.0   999  999.0   999    999.0    999    999.00     999   999.0   999.0  999.0  999.0
 242    4:10  999.0   999  999.0   999    999.0    999    999.00     999   999.0   999.0  999.0  999.0
 242    4:20  999.0   999  999.0   999    999.0    999    999.00     999   999.0   999.0  999.0  999.0
 242    4:30  999.0   999  999.0   999    999.0    999    999.00     999   999.0   999.0  999.0  999.0
 242    4:40  999.0   999  999.0   999    999.0    999    999.00     999   999.0   999.0  999.0  999.0
 242    4:50  999.0   999  999.0   999    999.0    999    999.00     999   999.0   999.0  999.0  999.0
 242    5:00  999.0   999  999.0   999    999.0    999    999.00     999   999.0   999.0  999.0  999.0
 242    5:10  999.0   999  999.0   999    999.0    999    999.00     999   999.0   999.0  999.0  999.0
 242    5:20  999.0   999  999.0   999    999.0    999    999.00     999   999.0   999.0  999.0  999.0
 242    5:30  999.0   999  999.0   999    999.0    999    999.00     999   999.0   999.0  999.0  999.0
 242    5:40  999.0   999  999.0   999    999.0    999    999.00     999   999.0   999.0  999.0  999.0
 242    5:50   56.3    25    3.8   332      5.3    876     0.00      42    79.1   -8190.0    0.0  999.0
 242    6:00   56.6    25    4.5   349      5.8    876     0.00      72    79.0   -8190.0    0.0  999.0
 242    6:10   56.7    24    2.6     1      3.8    876     0.00     107    78.8   -8190.0    0.0  999.0
 242    6:20   62.6    20    2.0   124      4.7    877     0.00     140    78.7   -8190.0    0.0  999.0
 242    6:30   67.6    17    2.7   153      5.3    877     0.00     173    78.5   -8190.0    0.0  999.0
 242    6:40   69.5    16    2.3   169      3.5    877     0.00     207    78.4   -8190.0    0.0  999.0
 242    6:50   70.5    15    1.5   186      3.4    877     0.00     242    78.3   -8190.0    0.0  999.0
 242    7:00   69.8    16    1.9   235      2.9    877     0.00     278    78.2   -8190.0    0.0  999.0
 242    7:10   70.6    16    2.5   245      3.2    877     0.00     315    78.0   -8190.0    0.0  999.0
 242    7:20   71.9    15    2.5   254      3.4    877     0.00     352    77.9   -8190.0    0.0  999.0
 242    7:30   73.7    14    2.3   225      3.4    877     0.00     391    77.8   -8190.0    0.0  999.0
 242    7:40   75.6    14    2.8   182      4.4    877     0.00     412    77.6   -8190.0    0.0  999.0
 242    7:50   76.6    13    3.4   169      4.7    877     0.00     457    77.5   -8190.0    0.0  999.0
 242    8:00   77.8    13    3.4   186      5.2    877     0.00     505    77.5   -8190.0    0.0  999.0
 242    8:10   78.6    12    3.6   207      6.8    877     0.00     540    77.4   -8190.0    0.0  999.0
 242    8:20   79.7    12    3.5   210      5.1    877     0.00     564    77.3   -8190.0    0.0  999.0
 242    8:30   80.7    11    4.0   206      6.0    877     0.00     597    77.3   -8190.0    0.0  999.0
 242    8:40   81.4    11    3.3   174      5.8    876     0.00     655    77.2   -8190.0    0.0  999.0
 242    8:50   82.6    11    3.0   180      5.2    876     0.00     659    77.1   -8190.0    0.0  999.0
 242    9:00   83.1    10    2.4   204      4.8    876     0.00     700    77.1   -8190.0    0.0  999.0
 242    9:10   82.6    10    2.7   268      5.8    876     0.00     629    77.0   -8190.0    0.0  999.0
 242    9:20   83.3    10    2.1   252      5.6    876     0.00     778    77.0   -8190.0    0.0  999.0
 242    9:30   84.7    10    0.8   232      3.1    876     0.00     890    76.9   -8190.0    0.0  999.0
 242    9:40   86.3     9    1.9   203      5.1    876     0.00     751    76.9   -8190.0    0.0  999.0
 242    9:50   86.0     9    1.0   123      2.6    876     0.00     454    76.9   -8190.0    0.0  999.0
 242   10:00   86.7     9    1.6   239      6.0    876     0.00     824    76.9   -8190.0    0.0  999.0
 242   10:10   87.5     9    2.6   216      4.8    876     0.00     616    76.9   -8190.0    0.0  999.0
 242   10:20   87.3     9    1.9   310      5.8    876     0.00     873    76.9   -8190.0    0.0  999.0
 242   10:30   88.6     8    2.7   231      6.9    876     0.00     917    76.9   -8190.0    0.0  999.0
 242   10:40   88.8     8    2.5   190      6.3    876     0.00     928    76.9   -8190.0    0.0  999.0
 242   10:50   88.6     8    2.2   274      5.6    876     0.00     942    77.0   -8190.0    0.0  999.0
 242   11:00   89.4     8    1.9   313      5.0    875     0.00     947    77.0   -8190.0    0.0  999.0
 242   11:10   89.4     8    3.9   258      8.3    875     0.00     957    77.1   -8190.0    0.0  999.0
 242   11:20   90.0     8    4.5   282      9.7    875     0.00     976    77.2   -8190.0    0.0  999.0
 242   11:30   90.3     8    5.7   267      9.4    875     0.00     991    77.2   -8190.0    0.0  999.0
 242   11:40   91.1     8    5.9   247     12.3    875     0.00     893    77.3   -8190.0    0.0  999.0

Return to Fairview Valley graphs page.


Western Regional Climate Center,wrcc@dri.edu